Terminal Aerodrome Forecast
Issued by NWS Detroit/Pontiac, MI

Home | Current Version | Previous Version | Text Only | Print | Product List | Glossary On
Versions: 1 2 3 4 5 6 7 8 9 10 11 12 13 14 15 16 17 18 19 20 21 22 23 24 25 26 27 28 29 30 31 32 33 34 35 36 37 38 39 40 41 42 43 44 45 46 47 48 49 50
000
FTUS43 KDTX 281120
TAFDTW
TAF
KDTW 281120Z 2812/2918 17006KT P6SM SCT050 BKN080 OVC200
      TEMPO 2812/2815 P6SM -SHRA SCT030 OVC080
     FM281700 18009KT P6SM BKN045 BKN150
      TEMPO 2822/2902 2SM TSRA BKN025 OVC040CB
     FM290200 20006KT P6SM SCT040 SCT080 BKN150
     FM291200 24008KT 4SM -SHRA BR BKN018 OVC040
     FM291500 30008KT 6SM SHRA BR SCT012 OVC022=

USA.gov is the U.S. government's official web portal to all federal, state and local government web resources and services.